Time;durP1;ratioP1;P1;durP2;ratioP2;P2;SDS_P1;SDS_P2;PMS_P1;PMS_P2;Temp;Humidity;BMP_temperature;BMP_pressure;BME280_temperature;BME280_humidity;BME280_pressure;Samples;Min_cycle;Max_cycle;Signal;HPM_P1;HPM_P2
2023/12/12 00:01:00;;;;;;;;;;;;;;;7.10;100.00;100739.31;5112007;28;20274;-43
2023/12/12 00:03:25;;;;;;;;;;;;;;;7.10;100.00;100739.31;5112905;28;19916;-43
2023/12/12 00:05:50;;;;;;;;;;;;;;;7.10;100.00;100731.28;5111849;28;19992;-42
2023/12/12 00:08:15;;;;;;;;;;;;;;;7.06;100.00;100721.94;5112258;28;20029;-46
2023/12/12 00:10:40;;;;;;;;;;;;;;;7.04;100.00;100721.25;5111709;28;19959;-44
2023/12/12 00:13:06;;;;;;;;;;;;;;;7.01;100.00;100716.22;5111489;28;19973;-44
2023/12/12 00:15:31;;;;;;;;;;;;;;;6.99;100.00;100715.53;5111662;28;19923;-44
2023/12/12 00:17:56;;;;;;;;;;;;;;;6.96;100.00;100706.00;5117162;28;19920;-42
2023/12/12 00:20:21;;;;;;;;;;;;;;;6.92;100.00;100714.50;5120203;28;19920;-42
2023/12/12 00:22:47;;;;;;;;;;;;;;;6.86;100.00;100720.50;5118868;28;19927;-44
2023/12/12 00:25:12;;;;;;;;;;;;;;;6.75;100.00;100719.78;5116576;28;19916;-42
2023/12/12 00:27:37;;;;;;;;;;;;;;;6.68;100.00;100723.25;5115359;28;19916;-44
2023/12/12 00:30:03;;;;;;;;;;;;;;;6.58;100.00;100723.38;5115102;28;19920;-43
2023/12/12 00:32:29;;;;;;;;;;;;;;;6.46;100.00;100727.31;5115073;28;19920;-43
2023/12/12 00:34:54;;;;;;;;;;;;;;;6.37;100.00;100732.63;5114776;28;19927;-44
2023/12/12 00:37:19;;;;;;;;;;;;;;;6.38;100.00;100742.31;5106077;28;20384;-44
2023/12/12 00:39:44;;;;;;;;;;;;;;;6.43;100.00;100738.34;5113807;28;20334;-43
2023/12/12 00:42:10;;;;;;;;;;;;;;;6.48;100.00;100733.34;5115073;28;20384;-44
2023/12/12 00:44:35;;;;;;;;;;;;;;;6.49;100.00;100714.47;5114148;28;20378;-43
2023/12/12 00:47:00;;;;;;;;;;;;;;;6.55;100.00;100721.00;5114963;28;19920;-43
2023/12/12 00:49:26;;;;;;;;;;;;;;;6.60;100.00;100716.88;5115257;28;19920;-43
2023/12/12 00:51:51;;;;;;;;;;;;;;;6.67;100.00;100713.56;5115095;28;19931;-43
2023/12/12 00:54:16;;;;;;;;;;;;;;;6.73;100.00;100715.59;5114510;28;19919;-42
2023/12/12 00:56:44;;;;;;;;;;;;;;;6.78;100.00;100714.13;5114547;28;20026;-46
2023/12/12 00:59:09;;;;;;;;;;;;;;;6.81;100.00;100710.28;5114337;28;19919;-42
2023/12/12 01:01:34;;;;;;;;;;;;;;;6.85;100.00;100706.31;5114308;28;20018;-42
2023/12/12 01:03:59;;;;;;;;;;;;;;;6.87;100.00;100701.59;5114260;28;20079;-42
2023/12/12 01:06:25;;;;;;;;;;;;;;;6.86;100.00;100699.09;5112088;28;19920;-45
2023/12/12 01:08:50;;;;;;;;;;;;;;;6.85;100.00;100698.28;5114236;27;20993;-43
2023/12/12 01:11:18;;;;;;;;;;;;;;;6.86;100.00;100697.25;5113694;28;20288;-43
2023/12/12 01:13:43;;;;;;;;;;;;;;;6.86;100.00;100688.41;5112981;28;20339;-43
2023/12/12 01:16:08;;;;;;;;;;;;;;;6.88;100.00;100697.13;5114443;28;20022;-44
2023/12/12 01:18:34;;;;;;;;;;;;;;;6.87;100.00;100692.75;5114346;28;19920;-43
2023/12/12 01:21:00;;;;;;;;;;;;;;;6.86;100.00;100688.41;5114069;28;19916;-43
2023/12/12 01:23:25;;;;;;;;;;;;;;;6.85;100.00;100689.41;5114652;28;19919;-42
2023/12/12 01:25:50;;;;;;;;;;;;;;;6.80;100.00;100692.56;5114830;28;20350;-43
2023/12/12 01:28:15;;;;;;;;;;;;;;;6.77;100.00;100683.03;5114365;28;20412;-45
2023/12/12 01:30:41;;;;;;;;;;;;;;;6.73;100.00;100684.34;5113607;28;20365;-44
2023/12/12 01:33:06;;;;;;;;;;;;;;;6.66;100.00;100677.97;5113644;28;19923;-44
2023/12/12 01:35:31;;;;;;;;;;;;;;;6.58;100.00;100664.53;5113418;28;19980;-44
2023/12/12 01:37:56;;;;;;;;;;;;;;;6.51;100.00;100669.72;5113168;28;19965;-43
2023/12/12 01:40:22;;;;;;;;;;;;;;;6.45;100.00;100665.00;5113239;28;20004;-44
2023/12/12 01:42:47;;;;;;;;;;;;;;;6.36;100.00;100656.09;5113722;28;20041;-45
2023/12/12 01:45:12;;;;;;;;;;;;;;;6.30;100.00;100662.06;5113311;28;20390;-43
2023/12/12 01:47:37;;;;;;;;;;;;;;;6.24;100.00;100668.06;5111653;28;20274;-43
2023/12/12 01:50:03;;;;;;;;;;;;;;;6.13;100.00;100671.84;5113401;28;20454;-45
2023/12/12 01:52:28;;;;;;;;;;;;;;;6.04;100.00;100666.59;5112116;28;19930;-44
2023/12/12 01:54:53;;;;;;;;;;;;;;;5.99;100.00;100674.25;5113473;28;19926;-43
2023/12/12 01:57:18;;;;;;;;;;;;;;;5.92;100.00;100669.50;5113710;28;19915;-43
2023/12/12 01:59:46;;;;;;;;;;;;;;;5.83;100.00;100665.06;5113083;28;19958;-43
2023/12/12 02:02:12;;;;;;;;;;;;;;;5.79;100.00;100674.38;5101432;28;19931;-44
2023/12/12 02:04:37;;;;;;;;;;;;;;;5.74;100.00;100676.69;5106775;28;20306;-43
2023/12/12 02:07:03;;;;;;;;;;;;;;;5.68;100.00;100672.78;5112889;28;19926;-43
2023/12/12 02:09:28;;;;;;;;;;;;;;;5.62;100.00;100677.91;5111686;28;19920;-43
2023/12/12 02:11:53;;;;;;;;;;;;;;;5.62;100.00;100676.09;5111413;28;20374;-43
2023/12/12 02:14:18;;;;;;;;;;;;;;;5.56;100.00;100683.88;5111553;28;20446;-44
2023/12/12 02:16:43;;;;;;;;;;;;;;;5.50;100.00;100678.16;5112096;28;19920;-43
2023/12/12 02:19:09;;;;;;;;;;;;;;;5.45;100.00;100674.25;5109319;28;19942;-43
2023/12/12 02:21:34;;;;;;;;;;;;;;;5.46;100.00;100678.63;5111314;28;19923;-43
2023/12/12 02:23:59;;;;;;;;;;;;;;;5.62;100.00;100683.25;5113133;28;19920;-41
2023/12/12 02:26:24;;;;;;;;;;;;;;;5.67;100.00;100686.31;5109716;28;19920;-42
2023/12/12 02:28:49;;;;;;;;;;;;;;;5.64;100.00;100678.63;5111132;28;19927;-43
2023/12/12 02:31:15;;;;;;;;;;;;;;;5.57;100.00;100680.22;5111252;28;20022;-43
2023/12/12 02:33:40;;;;;;;;;;;;;;;5.43;100.00;100674.41;5111327;28;19927;-45
2023/12/12 02:36:05;;;;;;;;;;;;;;;5.35;100.00;100668.19;5113101;28;19920;-43
2023/12/12 02:38:30;;;;;;;;;;;;;;;5.34;100.00;100675.31;5111837;28;19938;-43
2023/12/12 02:40:56;;;;;;;;;;;;;;;5.28;100.00;100668.75;5112237;28;19931;-44
2023/12/12 02:43:21;;;;;;;;;;;;;;;5.27;100.00;100672.44;5112780;28;19920;-44
2023/12/12 02:45:46;;;;;;;;;;;;;;;5.23;100.00;100675.56;5112623;28;19927;-42
2023/12/12 02:48:12;;;;;;;;;;;;;;;5.22;100.00;100671.22;5112556;28;19920;-45
2023/12/12 02:50:37;;;;;;;;;;;;;;;5.16;100.00;100671.81;5103012;28;19959;-43
2023/12/12 02:53:02;;;;;;;;;;;;;;;5.22;100.00;100679.22;5112446;28;19920;-43
2023/12/12 02:55:27;;;;;;;;;;;;;;;5.21;100.00;100666.84;5112391;28;19989;-44
2023/12/12 02:57:52;;;;;;;;;;;;;;;5.22;100.00;100668.56;5112602;28;19920;-43
2023/12/12 03:00:18;;;;;;;;;;;;;;;5.23;100.00;100667.53;5111916;28;19922;-44
2023/12/12 03:02:43;;;;;;;;;;;;;;;5.32;100.00;100669.31;5112163;28;19920;-43
2023/12/12 03:05:08;;;;;;;;;;;;;;;5.30;100.00;100668.63;5112784;28;20239;-43
2023/12/12 03:07:34;;;;;;;;;;;;;;;5.27;100.00;100668.94;5111874;28;19942;-45
2023/12/12 03:09:59;;;;;;;;;;;;;;;5.25;100.00;100665.56;5112109;28;19972;-43
2023/12/12 03:12:24;;;;;;;;;;;;;;;5.27;100.00;100668.94;5111761;28;20014;-42
2023/12/12 03:14:50;;;;;;;;;;;;;;;5.25;100.00;100663.75;5112649;28;19958;-44
2023/12/12 03:17:15;;;;;;;;;;;;;;;5.28;100.00;100659.94;5112167;28;19955;-44
2023/12/12 03:19:40;;;;;;;;;;;;;;;5.26;100.00;100660.06;5111534;28;20366;-42
2023/12/12 03:22:05;;;;;;;;;;;;;;;5.22;100.00;100655.22;5110531;28;19980;-43
2023/12/12 03:24:31;;;;;;;;;;;;;;;5.19;100.00;100655.50;5111738;28;20014;-43
2023/12/12 03:26:56;;;;;;;;;;;;;;;5.18;100.00;100656.50;5110404;28;19927;-44
2023/12/12 03:29:21;;;;;;;;;;;;;;;5.17;100.00;100652.16;5111865;28;20421;-45
2023/12/12 03:31:46;;;;;;;;;;;;;;;5.14;100.00;100657.78;5111882;28;20374;-43
2023/12/12 03:34:11;;;;;;;;;;;;;;;5.14;100.00;100652.47;5111400;28;20453;-44
2023/12/12 03:36:40;;;;;;;;;;;;;;;5.17;100.00;100657.50;5111787;28;20331;-44
2023/12/12 03:39:06;;;;;;;;;;;;;;;5.19;100.00;100650.19;5112016;28;19920;-44
2023/12/12 03:41:31;;;;;;;;;;;;;;;5.19;100.00;100655.50;5112398;28;19916;-45
2023/12/12 03:43:56;;;;;;;;;;;;;;;5.21;100.00;100654.38;5104902;28;19942;-44
2023/12/12 03:46:22;;;;;;;;;;;;;;;5.25;100.00;100645.06;5111883;28;19919;-45
2023/12/12 03:48:47;;;;;;;;;;;;;;;5.27;100.00;100632.41;5111838;28;19970;-42
2023/12/12 03:51:12;;;;;;;;;;;;;;;5.33;100.00;100638.97;5112906;28;19919;-42
2023/12/12 03:53:40;;;;;;;;;;;;;;;5.35;100.00;100631.66;5115706;28;19950;-43
2023/12/12 03:56:06;;;;;;;;;;;;;;;5.40;100.00;100621.34;5115878;28;20368;-43
2023/12/12 03:58:31;;;;;;;;;;;;;;;5.43;100.00;100621.03;5115982;28;19988;-43
2023/12/12 04:00:56;;;;;;;;;;;;;;;5.44;100.00;100611.19;5115716;28;19919;-44
2023/12/12 04:03:22;;;;;;;;;;;;;;;5.38;100.00;100614.50;5115247;28;19924;-44
2023/12/12 04:05:47;;;;;;;;;;;;;;;5.33;100.00;100603.44;5115983;28;19961;-43
2023/12/12 04:08:13;;;;;;;;;;;;;;;5.36;100.00;100587.94;5115508;28;19919;-44
2023/12/12 04:10:38;;;;;;;;;;;;;;;5.36;100.00;100581.78;5115519;27;20273;-44
2023/12/12 04:13:03;;;;;;;;;;;;;;;5.34;100.00;100579.25;5114962;28;19920;-43
2023/12/12 04:15:28;;;;;;;;;;;;;;;5.34;100.00;100578.41;5115167;28;19922;-44
2023/12/12 04:17:54;;;;;;;;;;;;;;;5.27;100.00;100578.22;5114336;28;20281;-43
2023/12/12 04:20:19;;;;;;;;;;;;;;;5.30;100.00;100575.22;5108606;28;20421;-43
2023/12/12 04:22:44;;;;;;;;;;;;;;;5.32;100.00;100570.59;5114626;28;20416;-45
2023/12/12 04:25:12;;;;;;;;;;;;;;;5.37;100.00;100565.63;5115368;28;19966;-45
2023/12/12 04:27:38;;;;;;;;;;;;;;;5.37;100.00;100562.97;5114608;28;19916;-43
2023/12/12 04:30:04;;;;;;;;;;;;;;;5.40;100.00;100562.63;5115304;28;19961;-43
2023/12/12 04:32:30;;;;;;;;;;;;;;;5.42;100.00;100570.47;5115162;28;19931;-43
2023/12/12 04:34:55;;;;;;;;;;;;;;;5.40;100.00;100561.81;5115347;28;19920;-43
2023/12/12 04:37:20;;;;;;;;;;;;;;;5.39;100.00;100566.28;5115829;28;20366;-43
2023/12/12 04:39:45;;;;;;;;;;;;;;;5.41;100.00;100566.97;5117747;28;20387;-42
2023/12/12 04:42:11;;;;;;;;;;;;;;;5.40;100.00;100575.97;5117498;28;20392;-42
2023/12/12 04:44:36;;;;;;;;;;;;;;;5.38;100.00;100569.13;5116909;28;19943;-41
2023/12/12 04:47:02;;;;;;;;;;;;;;;5.42;100.00;100573.16;5115029;28;20370;-42
2023/12/12 04:49:28;;;;;;;;;;;;;;;5.47;100.00;100568.19;5114147;28;20281;-42
2023/12/12 04:51:53;;;;;;;;;;;;;;;5.50;100.00;100559.84;5108632;28;19916;-43
2023/12/12 04:54:18;;;;;;;;;;;;;;;5.52;100.00;100563.22;5108013;28;19920;-43
2023/12/12 04:56:43;;;;;;;;;;;;;;;5.48;100.00;100559.19;5114541;28;19974;-42
2023/12/12 04:59:08;;;;;;;;;;;;;;;5.50;100.00;100568.72;5114923;28;19923;-42
2023/12/12 05:01:34;;;;;;;;;;;;;;;5.49;100.00;100569.69;5114459;28;19916;-42
2023/12/12 05:04:00;;;;;;;;;;;;;;;5.44;100.00;100566.66;5114674;28;20006;-43
2023/12/12 05:06:25;;;;;;;;;;;;;;;5.44;100.00;100568.50;5113395;28;20399;-44
2023/12/12 05:08:50;;;;;;;;;;;;;;;5.49;100.00;100575.03;5113802;28;19944;-45
2023/12/12 05:11:16;;;;;;;;;;;;;;;5.50;100.00;100570.53;5114595;28;19919;-43
2023/12/12 05:13:41;;;;;;;;;;;;;;;5.53;100.00;100569.38;5113261;28;20374;-43
2023/12/12 05:16:07;;;;;;;;;;;;;;;5.57;100.00;100557.41;5113966;28;20238;-44
2023/12/12 05:18:32;;;;;;;;;;;;;;;5.62;100.00;100558.63;5113953;28;19978;-42
2023/12/12 05:20:57;;;;;;;;;;;;;;;5.67;100.00;100558.97;5111441;28;20396;-42
2023/12/12 05:23:23;;;;;;;;;;;;;;;5.72;100.00;100561.19;5113398;28;20400;-43
2023/12/12 05:25:49;;;;;;;;;;;;;;;5.73;100.00;100557.50;5114707;28;20039;-44
2023/12/12 05:28:16;;;;;;;;;;;;;;;5.80;100.00;100555.91;5114401;28;19920;-43
2023/12/12 05:30:42;;;;;;;;;;;;;;;5.85;100.00;100561.59;5114461;28;19915;-43
2023/12/12 05:33:07;;;;;;;;;;;;;;;5.89;100.00;100560.28;5113574;28;19934;-43
2023/12/12 05:35:32;;;;;;;;;;;;;;;5.94;100.00;100551.81;5105686;28;20002;-43
2023/12/12 05:37:57;;;;;;;;;;;;;;;5.99;100.00;100552.19;5113171;28;20035;-43
2023/12/12 05:40:23;;;;;;;;;;;;;;;6.09;100.00;100547.56;5113896;28;19967;-43
2023/12/12 05:42:48;;;;;;;;;;;;;;;6.10;100.00;100540.38;5113105;28;20430;-43
2023/12/12 05:45:13;;;;;;;;;;;;;;;6.14;100.00;100539.91;5112076;28;20362;-43
2023/12/12 05:47:40;;;;;;;;;;;;;;;6.13;100.00;100548.06;5113421;28;20501;-44
2023/12/12 05:50:06;;;;;;;;;;;;;;;6.15;100.00;100540.75;5111549;28;19972;-44
2023/12/12 05:52:31;;;;;;;;;;;;;;;6.17;100.00;100533.41;5113700;28;19919;-43
2023/12/12 05:54:56;;;;;;;;;;;;;;;6.21;100.00;100528.56;5111993;28;20223;-43
2023/12/12 05:57:21;;;;;;;;;;;;;;;6.28;100.00;100533.09;5112491;28;20295;-44
2023/12/12 05:59:47;;;;;;;;;;;;;;;6.30;100.00;100523.09;5099235;28;20320;-46
2023/12/12 06:02:12;;;;;;;;;;;;;;;6.32;100.00;100522.94;5093425;28;19919;-44
2023/12/12 06:04:38;;;;;;;;;;;;;;;6.31;100.00;100522.09;5093710;28;20022;-42
2023/12/12 06:07:04;;;;;;;;;;;;;;;6.35;100.00;100523.44;5113330;28;19951;-42
2023/12/12 06:09:29;;;;;;;;;;;;;;;6.38;100.00;100520.44;5112647;28;19920;-45
2023/12/12 06:11:54;;;;;;;;;;;;;;;6.41;100.00;100515.78;5113228;28;19920;-43
2023/12/12 06:14:19;;;;;;;;;;;;;;;6.44;100.00;100515.44;5110466;28;20396;-43
2023/12/12 06:16:45;;;;;;;;;;;;;;;6.42;100.00;100509.44;5108607;27;20321;-45
2023/12/12 06:19:10;;;;;;;;;;;;;;;6.42;100.00;100506.75;5111036;28;20377;-45
2023/12/12 06:21:35;;;;;;;;;;;;;;;6.44;100.00;100504.75;5112878;28;20358;-45
2023/12/12 06:24:01;;;;;;;;;;;;;;;6.50;100.00;100506.78;5113256;28;20404;-43
2023/12/12 06:26:27;;;;;;;;;;;;;;;6.53;100.00;100507.28;5111203;28;19924;-42
2023/12/12 06:28:52;;;;;;;;;;;;;;;6.52;100.00;100504.78;5111883;28;19976;-43
2023/12/12 06:31:17;;;;;;;;;;;;;;;6.48;100.00;100508.78;5111798;28;19920;-43
2023/12/12 06:33:42;;;;;;;;;;;;;;;6.45;100.00;100506.41;5112786;28;19922;-43
2023/12/12 06:36:09;;;;;;;;;;;;;;;6.45;100.00;100501.94;5111414;28;19920;-44
2023/12/12 06:38:34;;;;;;;;;;;;;;;6.46;100.00;100487.56;5112157;28;19973;-44
2023/12/12 06:40:59;;;;;;;;;;;;;;;6.62;100.00;100478.72;5110908;28;20000;-47
2023/12/12 06:43:25;;;;;;;;;;;;;;;6.62;100.00;100481.41;5111979;28;19920;-43
2023/12/12 06:45:50;;;;;;;;;;;;;;;6.58;100.00;100480.03;5111514;28;19924;-44
2023/12/12 06:48:15;;;;;;;;;;;;;;;6.56;100.00;100472.22;5111602;28;19934;-44
2023/12/12 06:50:40;;;;;;;;;;;;;;;6.55;100.00;100481.22;5112207;28;19950;-45
2023/12/12 06:53:06;;;;;;;;;;;;;;;6.52;100.00;100483.38;5112628;28;19928;-44
2023/12/12 06:55:31;;;;;;;;;;;;;;;6.53;100.00;100479.69;5112172;28;20010;-43
2023/12/12 06:57:57;;;;;;;;;;;;;;;6.55;100.00;100475.03;5112029;28;19926;-44
2023/12/12 07:00:24;;;;;;;;;;;;;;;6.54;100.00;100490.25;5112796;28;19920;-44
2023/12/12 07:02:49;;;;;;;;;;;;;;;6.57;100.00;100475.72;5112998;28;20002;-44
2023/12/12 07:05:15;;;;;;;;;;;;;;;6.61;100.00;100477.06;5113113;28;19958;-42
2023/12/12 07:07:40;;;;;;;;;;;;;;;6.63;100.00;100479.56;5114132;28;19920;-43
2023/12/12 07:10:06;;;;;;;;;;;;;;;6.71;100.00;100477.72;5112750;28;19965;-44
2023/12/12 07:12:31;;;;;;;;;;;;;;;6.73;100.00;100469.53;5112794;28;19915;-46
2023/12/12 07:14:57;;;;;;;;;;;;;;;6.78;100.00;100480.56;5111880;28;20014;-43
2023/12/12 07:17:22;;;;;;;;;;;;;;;6.77;100.00;100477.06;5102603;28;20265;-43
2023/12/12 07:19:47;;;;;;;;;;;;;;;6.81;100.00;100483.75;5111687;28;19942;-44
2023/12/12 07:22:12;;;;;;;;;;;;;;;6.86;100.00;100479.75;5111347;28;19920;-46
2023/12/12 07:24:39;;;;;;;;;;;;;;;6.92;100.00;100473.72;5112612;28;19965;-47
2023/12/12 07:27:04;;;;;;;;;;;;;;;6.95;100.00;100465.34;5114784;28;19971;-45
2023/12/12 07:29:30;;;;;;;;;;;;;;;6.99;100.00;100464.03;5105322;28;20362;-44
2023/12/12 07:31:55;;;;;;;;;;;;;;;7.01;100.00;100464.72;5097680;28;20327;-45
2023/12/12 07:34:20;;;;;;;;;;;;;;;7.04;100.00;100445.63;5110683;28;19920;-44
2023/12/12 07:36:46;;;;;;;;;;;;;;;7.06;100.00;100442.78;5109983;28;19931;-44
2023/12/12 07:39:11;;;;;;;;;;;;;;;7.10;100.00;100438.78;5099698;28;19923;-45
2023/12/12 07:41:36;;;;;;;;;;;;;;;7.14;100.00;100440.94;5108571;27;19919;-45
2023/12/12 07:44:03;;;;;;;;;;;;;;;7.14;100.00;100446.31;5108879;28;20318;-48
2023/12/12 07:46:28;;;;;;;;;;;;;;;7.16;100.00;100440.75;5109375;28;19916;-45
2023/12/12 07:48:53;;;;;;;;;;;;;;;7.15;100.00;100436.41;5108420;28;19926;-44
2023/12/12 07:51:18;;;;;;;;;;;;;;;7.22;100.00;100427.53;5107795;28;19923;-45
2023/12/12 07:53:44;;;;;;;;;;;;;;;7.28;100.00;100425.19;5109431;28;20553;-45
2023/12/12 07:56:09;;;;;;;;;;;;;;;7.24;100.00;100414.84;5108723;28;19927;-45
2023/12/12 07:58:34;;;;;;;;;;;;;;;7.30;100.00;100424.03;5108686;28;19919;-44
2023/12/12 08:00:59;;;;;;;;;;;;;;;7.36;100.00;100422.50;5108962;28;19920;-45
2023/12/12 08:03:25;;;;;;;;;;;;;;;7.33;100.00;100418.31;5110242;28;19926;-44
2023/12/12 08:05:50;;;;;;;;;;;;;;;7.40;100.00;100408.59;5107856;28;19926;-45
2023/12/12 08:08:15;;;;;;;;;;;;;;;7.34;100.00;100406.59;5109147;28;19930;-44
2023/12/12 08:10:41;;;;;;;;;;;;;;;7.41;100.00;100404.06;5105952;28;20046;-44
2023/12/12 08:13:08;;;;;;;;;;;;;;;7.40;100.00;100392.53;5100004;28;20011;-43
2023/12/12 08:15:33;;;;;;;;;;;;;;;7.48;100.00;100399.72;5105819;28;20399;-42
2023/12/12 08:17:59;;;;;;;;;;;;;;;7.50;100.00;100391.50;5105523;28;19928;-45
2023/12/12 08:20:24;;;;;;;;;;;;;;;7.46;100.00;100388.34;5106745;28;19920;-45
2023/12/12 08:22:50;;;;;;;;;;;;;;;7.51;100.00;100401.22;5104408;28;19924;-43
2023/12/12 08:25:15;;;;;;;;;;;;;;;7.52;100.00;100398.34;5106865;28;19981;-44
2023/12/12 08:27:40;;;;;;;;;;;;;;;7.54;100.00;100392.81;5109741;28;19924;-44
2023/12/12 08:30:07;;;;;;;;;;;;;;;7.59;100.00;100380.59;5107608;28;20052;-45
2023/12/12 08:32:32;;;;;;;;;;;;;;;7.57;100.00;100377.22;5108294;28;20369;-44
2023/12/12 08:34:57;;;;;;;;;;;;;;;7.62;100.00;100368.69;5109468;28;19919;-45
2023/12/12 08:37:22;;;;;;;;;;;;;;;7.61;100.00;100375.03;5099137;28;20487;-45
2023/12/12 08:39:48;;;;;;;;;;;;;;;7.69;100.00;100369.66;5105668;28;19983;-45
2023/12/12 08:42:13;;;;;;;;;;;;;;;7.64;100.00;100378.22;5107266;28;20499;-44
2023/12/12 08:44:41;;;;;;;;;;;;;;;7.66;100.00;100381.56;5106584;28;20436;-45
2023/12/12 08:47:07;;;;;;;;;;;;;;;7.70;100.00;100376.69;5105047;28;19928;-40
2023/12/12 08:49:34;;;;;;;;;;;;;;;7.79;100.00;100370.25;5102135;28;19961;-41
2023/12/12 08:51:59;;;;;;;;;;;;;;;7.81;100.00;100383.50;5107528;27;19927;-40
2023/12/12 08:54:25;;;;;;;;;;;;;;;7.87;100.00;100383.63;5100421;28;19924;-41
2023/12/12 08:56:53;;;;;;;;;;;;;;;7.87;100.00;100378.28;5109169;28;19916;-42
2023/12/12 08:59:21;;;;;;;;;;;;;;;7.91;100.00;100378.75;5109217;28;19930;-40
2023/12/12 09:01:46;;;;;;;;;;;;;;;7.97;100.00;100371.84;5109597;28;19928;-41
2023/12/12 09:04:14;;;;;;;;;;;;;;;7.98;100.00;100379.72;5108257;28;21015;-40
2023/12/12 09:06:39;;;;;;;;;;;;;;;7.96;100.00;100373.69;5108332;28;19957;-41
2023/12/12 09:09:06;;;;;;;;;;;;;;;8.01;100.00;100357.94;5109217;28;19955;-40
2023/12/12 09:11:33;;;;;;;;;;;;;;;8.04;100.00;100357.56;5104213;28;19930;-40
2023/12/12 09:13:58;;;;;;;;;;;;;;;8.02;100.00;100359.59;5105538;28;19916;-40
2023/12/12 09:16:23;;;;;;;;;;;;;;;8.04;100.00;100354.88;5107693;28;19933;-41
2023/12/12 09:18:49;;;;;;;;;;;;;;;8.10;100.00;100351.50;5106881;28;19935;-41
2023/12/12 09:21:15;;;;;;;;;;;;;;;8.10;100.00;100339.94;5107085;28;19939;-40
2023/12/12 09:23:40;;;;;;;;;;;;;;;8.10;100.00;100343.44;5106239;27;19934;-40
2023/12/12 09:26:05;;;;;;;;;;;;;;;8.13;100.00;100328.84;5104403;28;20308;-41
2023/12/12 09:28:30;;;;;;;;;;;;;;;8.17;100.00;100332.03;5103630;28;20065;-41
2023/12/12 09:30:56;;;;;;;;;;;;;;;8.17;100.00;100327.50;5109138;28;19955;-40
2023/12/12 09:33:21;;;;;;;;;;;;;;;8.20;100.00;100321.78;5105374;28;20445;-41
2023/12/12 09:35:46;;;;;;;;;;;;;;;8.26;100.00;100309.50;5108562;28;20013;-40
2023/12/12 09:38:12;;;;;;;;;;;;;;;8.33;100.00;100305.91;5106472;28;19935;-41
2023/12/12 09:40:39;;;;;;;;;;;;;;;8.37;100.00;100303.69;5103351;28;19920;-42
2023/12/12 09:43:04;;;;;;;;;;;;;;;8.32;100.00;100303.41;5102490;28;19920;-40
2023/12/12 09:45:30;;;;;;;;;;;;;;;8.37;100.00;100292.97;5100235;28;19938;-41
2023/12/12 09:47:55;;;;;;;;;;;;;;;8.36;100.00;100294.00;5105791;28;21108;-40
2023/12/12 09:50:20;;;;;;;;;;;;;;;8.39;100.00;100280.25;5101670;28;19923;-42
2023/12/12 09:52:46;;;;;;;;;;;;;;;8.45;100.00;100284.06;5108258;28;19976;-40
2023/12/12 09:55:11;;;;;;;;;;;;;;;8.42;100.00;100271.03;5096603;27;19927;-40
2023/12/12 09:57:36;;;;;;;;;;;;;;;8.43;100.00;100270.84;5102827;28;19919;-40
2023/12/12 10:00:03;;;;;;;;;;;;;;;8.56;100.00;100260.31;5105428;28;20018;-42
2023/12/12 10:02:35;;;;;;;;;;;;;;;8.58;100.00;100262.81;5099773;28;20297;-41
2023/12/12 10:05:09;;;;;;;;;;;;;;;8.60;100.00;100254.59;5103404;28;19920;-42
2023/12/12 10:07:34;;;;;;;;;;;;;;;8.65;100.00;100249.50;5104579;28;19924;-40
2023/12/12 10:10:04;;;;;;;;;;;;;;;8.65;100.00;100242.28;5100730;28;19927;-40
2023/12/12 10:12:29;;;;;;;;;;;;;;;8.66;100.00;100227.88;5108096;28;19916;-42
2023/12/12 10:14:54;;;;;;;;;;;;;;;8.73;100.00;100225.28;5107234;28;19989;-41
2023/12/12 10:17:23;;;;;;;;;;;;;;;8.79;100.00;100221.84;5107689;28;19944;-40
2023/12/12 10:19:56;;;;;;;;;;;;;;;8.81;100.00;100217.13;5105314;28;19992;-41
2023/12/12 10:22:22;;;;;;;;;;;;;;;8.75;100.00;100217.88;5104588;28;19928;-40
2023/12/12 10:24:47;;;;;;;;;;;;;;;8.84;100.00;100214.06;5106507;28;19924;-40
2023/12/12 10:27:19;;;;;;;;;;;;;;;8.84;100.00;100208.69;5104442;27;19927;-40
2023/12/12 10:29:45;;;;;;;;;;;;;;;8.83;100.00;100195.50;5104202;27;20409;-39
2023/12/12 10:32:11;;;;;;;;;;;;;;;8.90;100.00;100197.25;5104487;28;19934;-39
2023/12/12 10:34:36;;;;;;;;;;;;;;;8.85;100.00;100180.88;5095734;28;19974;-40
2023/12/12 10:37:02;;;;;;;;;;;;;;;8.86;100.00;100181.69;5107147;28;19954;-40
2023/12/12 10:39:28;;;;;;;;;;;;;;;8.83;100.00;100174.84;5105683;28;20020;-41
2023/12/12 10:41:55;;;;;;;;;;;;;;;8.86;100.00;100179.84;5095447;28;19959;-41
2023/12/12 10:44:21;;;;;;;;;;;;;;;8.79;100.00;100170.84;5103643;28;19928;-41
2023/12/12 10:46:47;;;;;;;;;;;;;;;8.85;100.00;100164.78;5105578;28;20305;-41
2023/12/12 10:49:12;;;;;;;;;;;;;;;8.77;100.00;100164.88;5090578;28;19928;-40
2023/12/12 10:51:37;;;;;;;;;;;;;;;8.82;100.00;100173.19;5093569;28;19916;-39
2023/12/12 10:54:03;;;;;;;;;;;;;;;8.87;100.00;100167.25;5094539;28;20307;-41
2023/12/12 10:56:35;;;;;;;;;;;;;;;8.81;100.00;100160.78;5091464;28;19916;-40
2023/12/12 10:59:00;;;;;;;;;;;;;;;8.88;100.00;100155.50;5105779;28;19920;-40
2023/12/12 11:01:26;;;;;;;;;;;;;;;8.89;100.00;100141.88;5098098;28;20514;-41
2023/12/12 11:03:51;;;;;;;;;;;;;;;8.91;100.00;100133.66;5103940;28;19924;-41
2023/12/12 11:06:16;;;;;;;;;;;;;;;8.98;100.00;100129.22;5105104;28;20263;-40
2023/12/12 11:08:42;;;;;;;;;;;;;;;8.92;100.00;100128.09;5100510;28;19934;-40
2023/12/12 11:11:11;;;;;;;;;;;;;;;8.89;100.00;100119.59;5109193;28;19983;-41
2023/12/12 11:13:38;;;;;;;;;;;;;;;8.94;100.00;100117.19;5104908;27;19959;-41
2023/12/12 11:16:04;;;;;;;;;;;;;;;8.88;100.00;100113.41;5099108;28;20202;-39
2023/12/12 11:18:29;;;;;;;;;;;;;;;8.95;100.00;100108.94;5103938;28;19919;-39
2023/12/12 11:20:55;;;;;;;;;;;;;;;8.92;100.00;100108.47;5103168;28;19920;-40
2023/12/12 11:23:40;;;;;;;;;;;;;;;8.93;100.00;100110.97;5106493;28;19946;-41
2023/12/12 11:26:05;;;;;;;;;;;;;;;8.96;100.00;100105.22;5104448;28;19924;-41
2023/12/12 11:28:35;;;;;;;;;;;;;;;8.94;100.00;100098.41;5101155;28;20332;-41
2023/12/12 11:31:00;;;;;;;;;;;;;;;8.98;100.00;100113.94;5103581;28;20454;-39
2023/12/12 11:33:25;;;;;;;;;;;;;;;9.00;100.00;100105.69;5099746;28;19986;-42
2023/12/12 11:35:51;;;;;;;;;;;;;;;8.98;100.00;100105.88;5092210;28;19969;-40
2023/12/12 11:38:27;;;;;;;;;;;;;;;9.08;100.00;100091.31;5112763;28;19968;-39
2023/12/12 11:41:28;;;;;;;;;;;;;;;9.07;100.00;100090.47;5112206;28;19969;-40
2023/12/12 11:43:54;;;;;;;;;;;;;;;9.01;100.00;100091.25;5030085;28;19928;-39
2023/12/12 11:46:22;;;;;;;;;;;;;;;9.07;100.00;100084.28;5085743;28;19923;-41
2023/12/12 11:48:47;;;;;;;;;;;;;;;8.97;100.00;100072.00;5111639;28;19937;-41
2023/12/12 11:51:31;;;;;;;;;;;;;;;8.97;100.00;100068.50;5112051;28;20364;-39
2023/12/12 11:53:56;;;;;;;;;;;;;;;8.96;100.00;100062.28;5112249;28;20400;-40
2023/12/12 11:56:21;;;;;;;;;;;;;;;8.96;100.00;100064.97;5101770;28;19916;-42
2023/12/12 11:58:50;;;;;;;;;;;;;;;8.97;100.00;100047.00;5109945;28;19916;-40
2023/12/12 12:01:26;;;;;;;;;;;;;;;8.96;100.00;100059.59;5110621;28;19924;-41
2023/12/12 12:03:51;;;;;;;;;;;;;;;9.10;100.00;100057.06;5112214;28;19915;-40
2023/12/12 12:06:17;;;;;;;;;;;;;;;9.10;100.00;100055.19;5111494;28;19926;-41
2023/12/12 12:08:42;;;;;;;;;;;;;;;9.18;100.00;100051.56;5112171;28;19920;-41
2023/12/12 12:11:07;;;;;;;;;;;;;;;9.12;100.00;100052.34;5111970;28;19927;-42
2023/12/12 12:13:39;;;;;;;;;;;;;;;9.14;100.00;100058.34;5115062;28;19961;-41
2023/12/12 12:16:04;;;;;;;;;;;;;;;9.17;100.00;100040.00;5116608;28;19975;-41
2023/12/12 12:18:30;;;;;;;;;;;;;;;9.20;100.00;100034.22;5115125;28;19966;-40
2023/12/12 12:20:55;;;;;;;;;;;;;;;9.27;100.00;100028.09;5116041;28;19998;-40
2023/12/12 12:23:21;;;;;;;;;;;;;;;9.29;100.00;100024.19;5115309;28;19999;-41
2023/12/12 12:25:46;;;;;;;;;;;;;;;9.29;100.00;100023.34;5114153;28;19961;-42
2023/12/12 12:28:12;;;;;;;;;;;;;;;9.25;100.00;100020.25;5114116;28;19919;-41